Terminal Aerodrome Forecast
Issued by NWS

Current Version | Previous Version | Graphics & Text | Print | Product List | Glossary On
Versions: 1 2 3 4 5 6 7 8 9 10 11 12 13 14 15 16 17 18 19 20 21 22 23 24 25 26 27 28 29 30 31 32 33 34 35 36
000
FTUS41 KRNK 182158 AAA
TAFLWB
TAF AMD
KLWB 182158Z 1822/1918 02009KT P6SM -SHRA VCTS BKN050CB
      TEMPO 1822/1824 3SM TSRA OVC035CB
     FM190000 00000KT P6SM SCT060
     FM191000 00000KT 1SM BR SKC
     FM191200 00000KT P6SM FEW250=

USA.gov is the U.S. government's official web portal to all federal, state and local government web resources and services.